Time;durP1;ratioP1;P1;durP2;ratioP2;P2;SDS_P1;SDS_P2;PMS_P1;PMS_P2;Temp;Humidity;BMP_temperature;BMP_pressure;BME280_temperature;BME280_humidity;BME280_pressure;Samples;Min_cycle;Max_cycle;Signal;HPM_P1;HPM_P2
2021/09/12 00:01:41;;;;;;;8.23;3.60;;;15.60;99.90;;;;;;5072820;28;20200;-74
2021/09/12 00:04:08;;;;;;;9.40;3.70;;;15.60;99.90;;;;;;5073467;28;20184;-73
2021/09/12 00:06:35;;;;;;;5.70;3.27;;;15.60;99.90;;;;;;5072947;28;20206;-73
2021/09/12 00:09:01;;;;;;;9.00;3.47;;;15.50;99.90;;;;;;5072798;28;20203;-73
2021/09/12 00:11:28;;;;;;;9.73;4.30;;;15.50;99.90;;;;;;5072986;28;20286;-73
2021/09/12 00:13:55;;;;;;;9.07;4.27;;;15.40;99.90;;;;;;5073024;28;20310;-73
2021/09/12 00:16:23;;;;;;;6.87;3.63;;;15.30;99.90;;;;;;5073032;28;20206;-73
2021/09/12 00:18:50;;;;;;;13.40;3.67;;;15.30;99.90;;;;;;5073318;28;20290;-73
2021/09/12 00:21:17;;;;;;;8.27;4.40;;;15.20;99.90;;;;;;5072565;28;20282;-73
2021/09/12 00:23:44;;;;;;;9.77;4.17;;;15.20;99.90;;;;;;5072599;28;20568;-73
2021/09/12 00:26:11;;;;;;;8.03;3.70;;;15.10;99.90;;;;;;5072878;28;20199;-73
2021/09/12 00:28:37;;;;;;;9.30;3.80;;;15.10;99.90;;;;;;5072848;28;20234;-74
2021/09/12 00:31:04;;;;;;;8.67;4.20;;;15.10;99.90;;;;;;5073167;28;20191;-73
2021/09/12 00:33:32;;;;;;;8.30;4.30;;;15.00;99.90;;;;;;5072757;28;20234;-73
2021/09/12 00:36:00;;;;;;;10.43;4.17;;;14.90;99.90;;;;;;5072672;28;20225;-73
2021/09/12 00:38:26;;;;;;;8.40;3.80;;;14.80;99.90;;;;;;5072570;28;20242;-73
2021/09/12 00:40:57;;;;;;;7.93;4.30;;;14.70;99.90;;;;;;5072948;28;20207;-73
2021/09/12 00:43:24;;;;;;;9.10;4.10;;;14.60;99.90;;;;;;5073041;28;20223;-73
2021/09/12 00:45:53;;;;;;;9.07;4.07;;;14.50;99.90;;;;;;5072632;28;20686;-73
2021/09/12 00:48:20;;;;;;;16.33;4.70;;;14.40;99.90;;;;;;5072554;28;20207;-73
2021/09/12 00:50:48;;;;;;;10.10;4.60;;;14.50;99.90;;;;;;5072869;28;20199;-73
2021/09/12 00:53:16;;;;;;;9.93;4.30;;;14.50;99.90;;;;;;5072263;28;20250;-73
2021/09/12 00:55:44;;;;;;;6.90;4.67;;;14.40;99.90;;;;;;5072042;28;20924;-73
2021/09/12 00:58:12;;;;;;;15.53;5.40;;;14.50;99.90;;;;;;5072509;28;20238;-73
2021/09/12 01:00:39;;;;;;;14.07;5.03;;;14.40;99.90;;;;;;5072636;28;20222;-73
2021/09/12 01:03:06;;;;;;;10.10;4.83;;;14.30;99.90;;;;;;5072329;28;20196;-73
2021/09/12 01:05:33;;;;;;;14.23;4.93;;;14.20;99.90;;;;;;5072158;28;20653;-73
2021/09/12 01:08:01;;;;;;;10.90;4.63;;;14.20;99.90;;;;;;5072799;28;20206;-73
2021/09/12 01:10:29;;;;;;;12.10;5.67;;;14.20;99.90;;;;;;5072340;28;20243;-73
2021/09/12 01:12:55;;;;;;;12.27;4.80;;;14.20;99.90;;;;;;5072404;28;20199;-73
2021/09/12 01:15:23;;;;;;;11.87;5.23;;;14.20;99.90;;;;;;5072186;28;20238;-73
2021/09/12 01:17:50;;;;;;;12.83;5.80;;;14.10;99.90;;;;;;5072465;28;20315;-73
2021/09/12 01:20:17;;;;;;;10.83;5.70;;;14.20;99.90;;;;;;5072342;28;20198;-73
2021/09/12 01:22:45;;;;;;;13.07;5.63;;;14.00;99.90;;;;;;5072402;28;20200;-73
2021/09/12 01:25:13;;;;;;;16.67;5.50;;;14.00;99.90;;;;;;5072677;28;20284;-73
2021/09/12 01:27:40;;;;;;;14.03;5.50;;;14.00;99.90;;;;;;5072065;28;20205;-73
2021/09/12 01:30:08;;;;;;;14.47;5.50;;;14.00;99.90;;;;;;5072303;28;20211;-72
2021/09/12 01:32:35;;;;;;;12.03;5.40;;;13.90;99.90;;;;;;5071950;28;20210;-73
2021/09/12 01:35:02;;;;;;;11.77;5.20;;;14.00;99.90;;;;;;5073061;28;20226;-73
2021/09/12 01:37:29;;;;;;;13.47;5.53;;;14.00;99.90;;;;;;5075694;28;20205;-73
2021/09/12 01:39:56;;;;;;;10.50;5.20;;;13.90;99.90;;;;;;5075869;28;20290;-72
2021/09/12 01:42:24;;;;;;;13.73;6.00;;;13.90;99.90;;;;;;5076014;28;20199;-73
2021/09/12 01:44:53;;;;;;;16.13;5.70;;;13.90;99.90;;;;;;5075555;28;20542;-73
2021/09/12 01:47:20;;;;;;;11.53;5.70;;;13.90;99.90;;;;;;5075489;28;20204;-73
2021/09/12 01:49:47;;;;;;;15.17;5.57;;;14.00;99.90;;;;;;5075627;28;20582;-73
2021/09/12 01:52:14;;;;;;;15.83;5.70;;;13.90;99.90;;;;;;5075708;28;20330;-73
2021/09/12 01:54:41;;;;;;;11.67;5.20;;;13.90;99.90;;;;;;5075273;28;20304;-73
2021/09/12 01:57:09;;;;;;;11.73;5.43;;;13.90;99.90;;;;;;5075652;28;20221;-73
2021/09/12 01:59:37;;;;;;;11.43;5.87;;;13.90;99.90;;;;;;5075342;28;20207;-73
2021/09/12 02:02:04;;;;;;;12.17;5.17;;;13.90;99.90;;;;;;5075091;28;20295;-73
2021/09/12 02:04:31;;;;;;;14.77;5.73;;;13.80;99.90;;;;;;5075197;28;20192;-72
2021/09/12 02:06:58;;;;;;;15.27;5.40;;;13.80;99.90;;;;;;5075551;28;20195;-73
2021/09/12 02:09:26;;;;;;;10.80;5.37;;;13.70;99.90;;;;;;5075533;28;20293;-72
2021/09/12 02:11:53;;;;;;;12.90;5.87;;;13.80;99.90;;;;;;5075172;28;20204;-73
2021/09/12 02:14:20;;;;;;;14.67;5.60;;;13.70;99.90;;;;;;5075124;28;20316;-72
2021/09/12 02:16:49;;;;;;;8.30;5.10;;;13.70;99.90;;;;;;5074950;28;20199;-73
2021/09/12 02:19:16;;;;;;;10.00;5.63;;;13.70;99.90;;;;;;5075263;28;20202;-73
2021/09/12 02:21:43;;;;;;;13.03;5.40;;;13.80;99.90;;;;;;5074646;28;20208;-72
2021/09/12 02:24:10;;;;;;;12.90;5.27;;;13.70;99.90;;;;;;5075892;28;20674;-73
2021/09/12 02:26:36;;;;;;;16.37;5.70;;;13.60;99.90;;;;;;5086120;28;20285;-73
2021/09/12 02:29:03;;;;;;;15.53;5.77;;;13.60;99.90;;;;;;5074843;28;20286;-72
2021/09/12 02:31:30;;;;;;;15.60;6.10;;;13.60;99.90;;;;;;5075055;28;20285;-73
2021/09/12 02:33:58;;;;;;;11.17;5.80;;;13.60;99.90;;;;;;5074716;28;20237;-72
2021/09/12 02:36:26;;;;;;;14.33;6.00;;;13.60;99.90;;;;;;5074844;28;20253;-72
2021/09/12 02:38:53;;;;;;;15.90;5.70;;;13.60;99.90;;;;;;5074533;28;20576;-73
2021/09/12 02:41:19;;;;;;;18.57;6.07;;;13.50;99.90;;;;;;5074908;28;20200;-72
2021/09/12 02:43:46;;;;;;;15.90;6.00;;;13.60;99.90;;;;;;5074792;28;20192;-72
2021/09/12 02:46:13;;;;;;;17.30;6.70;;;13.60;99.90;;;;;;5073661;28;20196;-73
2021/09/12 02:48:40;;;;;;;12.53;6.27;;;13.50;99.90;;;;;;5074120;28;20662;-73
2021/09/12 02:51:08;;;;;;;18.57;6.60;;;13.60;99.90;;;;;;5074641;28;20295;-72
2021/09/12 02:53:35;;;;;;;12.17;6.20;;;13.60;99.90;;;;;;5074049;28;20209;-72
2021/09/12 02:56:02;;;;;;;12.60;6.10;;;13.60;99.90;;;;;;5074137;28;20683;-73
2021/09/12 02:58:29;;;;;;;14.93;6.80;;;13.60;99.90;;;;;;5074272;28;20199;-72
2021/09/12 03:00:56;;;;;;;15.17;5.97;;;13.60;99.90;;;;;;5074368;28;20209;-73
2021/09/12 03:03:23;;;;;;;11.30;5.93;;;13.60;99.90;;;;;;5074460;28;20209;-72
2021/09/12 03:05:49;;;;;;;12.30;6.37;;;13.50;99.90;;;;;;5074068;28;20540;-72
2021/09/12 03:08:17;;;;;;;13.47;5.93;;;13.50;99.90;;;;;;5073970;28;20675;-72
2021/09/12 03:10:44;;;;;;;14.33;6.17;;;13.50;99.90;;;;;;5074130;28;20293;-72
2021/09/12 03:13:11;;;;;;;10.80;5.73;;;13.50;99.90;;;;;;5091968;28;20199;-72
2021/09/12 03:15:38;;;;;;;12.10;5.60;;;13.40;99.90;;;;;;5086993;28;20576;-73
2021/09/12 03:18:05;;;;;;;16.17;6.63;;;13.40;99.90;;;;;;5073692;28;20207;-72
2021/09/12 03:20:32;;;;;;;18.80;5.67;;;13.40;99.90;;;;;;5074239;28;20287;-73
2021/09/12 03:22:59;;;;;;;11.70;6.00;;;13.40;99.90;;;;;;5074062;28;20204;-73
2021/09/12 03:25:27;;;;;;;9.83;6.20;;;13.40;99.90;;;;;;5073881;28;20206;-72
2021/09/12 03:27:54;;;;;;;17.47;7.00;;;13.30;99.90;;;;;;5073724;28;20206;-73
2021/09/12 03:30:21;;;;;;;13.33;6.27;;;13.20;99.90;;;;;;5073915;28;20307;-72
2021/09/12 03:32:48;;;;;;;15.53;7.53;;;13.30;99.90;;;;;;5073240;28;20203;-73
2021/09/12 03:35:15;;;;;;;15.90;7.10;;;13.30;99.90;;;;;;5073509;28;20719;-72
2021/09/12 03:37:42;;;;;;;16.00;7.27;;;13.30;99.90;;;;;;5073233;28;20206;-72
2021/09/12 03:40:10;;;;;;;14.23;7.30;;;13.40;99.90;;;;;;5073773;28;20200;-73
2021/09/12 03:42:39;;;;;;;13.37;6.97;;;13.30;99.90;;;;;;5073263;28;20241;-72
2021/09/12 03:45:06;;;;;;;18.63;8.03;;;13.40;99.90;;;;;;5073277;28;20214;-72
2021/09/12 03:47:33;;;;;;;14.23;7.27;;;13.30;99.90;;;;;;5073550;28;20206;-72
2021/09/12 03:50:00;;;;;;;17.67;7.47;;;13.40;99.90;;;;;;5072969;28;20290;-72
2021/09/12 03:52:28;;;;;;;16.63;7.67;;;13.40;99.90;;;;;;5073489;28;20203;-72
2021/09/12 03:54:55;;;;;;;20.73;7.60;;;13.30;99.90;;;;;;5073419;28;20645;-72
2021/09/12 03:57:23;;;;;;;15.83;7.87;;;13.40;99.90;;;;;;5072850;28;20285;-72
2021/09/12 03:59:51;;;;;;;19.83;7.13;;;13.30;99.90;;;;;;5072912;28;20206;-72
2021/09/12 04:02:19;;;;;;;20.40;8.10;;;13.30;99.90;;;;;;5073053;28;20736;-72
2021/09/12 04:04:46;;;;;;;14.07;7.60;;;13.30;99.90;;;;;;5073327;28;20210;-72
2021/09/12 04:07:12;;;;;;;21.30;8.10;;;13.30;99.90;;;;;;5072972;28;20560;-72
2021/09/12 04:09:39;;;;;;;16.33;7.30;;;13.20;99.90;;;;;;5073107;28;20273;-72
2021/09/12 04:12:07;;;;;;;19.17;7.73;;;13.20;99.90;;;;;;5073259;28;20294;-72
2021/09/12 04:14:33;;;;;;;18.90;8.10;;;13.10;99.90;;;;;;5072861;28;20580;-72
2021/09/12 04:17:01;;;;;;;14.60;7.43;;;13.20;99.90;;;;;;5072932;28;20199;-72
2021/09/12 04:19:28;;;;;;;20.13;7.17;;;13.30;99.90;;;;;;5073132;28;20202;-72
2021/09/12 04:21:55;;;;;;;13.53;6.87;;;13.30;99.90;;;;;;5073105;28;20203;-72
2021/09/12 04:24:23;;;;;;;20.33;8.13;;;13.40;99.90;;;;;;5072684;28;20198;-72
2021/09/12 04:26:50;;;;;;;18.37;7.03;;;13.50;99.90;;;;;;5072833;28;20234;-72
2021/09/12 04:29:17;;;;;;;12.53;7.23;;;13.50;99.90;;;;;;5072941;28;20287;-72
2021/09/12 04:31:44;;;;;;;13.33;7.20;;;13.50;99.90;;;;;;5072614;28;20595;-72
2021/09/12 04:34:12;;;;;;;14.50;6.90;;;13.50;99.90;;;;;;5072341;28;20680;-72
2021/09/12 04:36:39;;;;;;;16.07;7.30;;;13.60;99.90;;;;;;5072402;28;20206;-72
2021/09/12 04:39:06;;;;;;;20.10;7.30;;;13.60;99.90;;;;;;5073042;28;20210;-72
2021/09/12 04:41:33;;;;;;;18.57;7.20;;;13.60;99.90;;;;;;5073062;28;20203;-72
2021/09/12 04:44:00;;;;;;;11.43;6.50;;;13.60;99.90;;;;;;5072705;28;20206;-72
2021/09/12 04:46:27;;;;;;;12.07;6.63;;;13.50;99.90;;;;;;5072778;28;20618;-72
2021/09/12 04:48:53;;;;;;;14.10;7.30;;;13.50;99.90;;;;;;5072585;28;20208;-72
2021/09/12 04:51:22;;;;;;;12.73;6.40;;;13.50;99.90;;;;;;5072508;28;20609;-72
2021/09/12 04:53:48;;;;;;;15.40;7.40;;;13.50;99.90;;;;;;5072453;28;20200;-72
2021/09/12 04:56:15;;;;;;;17.33;6.43;;;13.50;99.90;;;;;;5072478;28;20667;-72
2021/09/12 04:58:42;;;;;;;11.53;6.57;;;13.50;99.90;;;;;;5072580;28;20206;-72
2021/09/12 05:01:09;;;;;;;15.30;6.23;;;13.60;99.90;;;;;;5072809;28;20292;-72
2021/09/12 05:03:36;;;;;;;13.37;6.53;;;13.60;99.90;;;;;;5072040;28;20238;-72
2021/09/12 05:06:03;;;;;;;11.03;6.17;;;13.70;99.90;;;;;;5072627;28;20290;-72
2021/09/12 05:08:31;;;;;;;13.87;7.00;;;13.80;99.90;;;;;;5072627;28;20290;-72
2021/09/12 05:10:58;;;;;;;12.33;6.27;;;13.70;99.90;;;;;;5074885;28;20306;-72
2021/09/12 05:13:26;;;;;;;16.63;6.47;;;13.80;99.90;;;;;;5076218;28;20290;-72
2021/09/12 05:15:53;;;;;;;16.40;6.40;;;13.70;99.90;;;;;;5075878;28;20243;-72
2021/09/12 05:18:20;;;;;;;14.40;6.47;;;13.60;99.90;;;;;;5076398;28;20226;-72
2021/09/12 05:20:48;;;;;;;20.30;7.03;;;13.60;99.90;;;;;;5075774;28;20525;-72
2021/09/12 05:23:15;;;;;;;17.40;7.30;;;13.60;99.90;;;;;;5076413;28;20209;-72
2021/09/12 05:25:43;;;;;;;17.67;7.20;;;13.60;99.90;;;;;;5076225;28;20196;-72
2021/09/12 05:28:10;;;;;;;17.73;6.63;;;13.50;99.90;;;;;;5076186;28;20290;-72
2021/09/12 05:30:37;;;;;;;14.23;6.73;;;13.60;99.90;;;;;;5076223;28;20294;-72
2021/09/12 05:33:04;;;;;;;15.50;6.57;;;13.60;99.90;;;;;;5075849;28;20209;-72
2021/09/12 05:35:31;;;;;;;17.67;6.80;;;13.60;99.90;;;;;;5078302;28;20306;-72
2021/09/12 05:37:58;;;;;;;12.00;6.50;;;13.60;99.90;;;;;;5085443;28;20208;-72
2021/09/12 05:40:25;;;;;;;10.90;6.60;;;13.70;99.90;;;;;;5075778;28;20205;-72
2021/09/12 05:42:53;;;;;;;14.03;6.40;;;13.60;99.90;;;;;;5076028;28;20206;-72
2021/09/12 05:45:21;;;;;;;14.43;6.27;;;13.70;99.90;;;;;;5075661;28;20223;-72
2021/09/12 05:47:48;;;;;;;12.50;7.10;;;13.70;99.90;;;;;;5075196;28;20214;-72
2021/09/12 05:50:14;;;;;;;15.53;6.53;;;13.70;99.90;;;;;;5075524;28;20206;-72
2021/09/12 05:52:41;;;;;;;14.97;6.67;;;13.80;99.90;;;;;;5075915;28;20612;-72
2021/09/12 05:55:09;;;;;;;10.63;6.37;;;13.90;99.90;;;;;;5075850;28;20330;-72
2021/09/12 05:57:36;;;;;;;14.23;6.50;;;14.00;99.90;;;;;;5074780;28;20206;-72
2021/09/12 06:00:06;;;;;;;17.73;5.90;;;14.00;99.90;;;;;;5075577;28;20227;-72
2021/09/12 06:02:33;;;;;;;14.13;6.13;;;14.20;99.90;;;;;;5075299;28;20556;-72
2021/09/12 06:05:03;;;;;;;10.53;6.03;;;14.20;99.90;;;;;;5075160;28;20693;-73
2021/09/12 06:07:31;;;;;;;10.60;5.43;;;14.20;99.90;;;;;;5059663;28;20571;-72
2021/09/12 06:09:58;;;;;;;12.83;6.17;;;14.30;99.90;;;;;;5075273;28;20196;-72
2021/09/12 06:12:25;;;;;;;12.17;5.23;;;14.40;99.90;;;;;;5075268;28;20291;-72
2021/09/12 06:14:52;;;;;;;11.97;5.47;;;14.40;99.90;;;;;;5075082;28;20743;-72
2021/09/12 06:17:20;;;;;;;10.03;5.43;;;14.50;99.90;;;;;;5075193;28;20588;-72
2021/09/12 06:19:48;;;;;;;11.53;5.50;;;14.70;99.90;;;;;;5075070;28;20231;-72
2021/09/12 06:22:15;;;;;;;12.10;5.60;;;14.80;99.90;;;;;;5074508;28;20257;-72
2021/09/12 06:24:43;;;;;;;9.50;5.20;;;14.90;99.90;;;;;;5075065;28;20222;-72
2021/09/12 06:27:09;;;;;;;9.43;5.10;;;15.00;99.90;;;;;;5074909;28;20196;-73
2021/09/12 06:29:36;;;;;;;10.53;4.77;;;15.20;99.90;;;;;;5075076;28;20203;-72
2021/09/12 06:32:04;;;;;;;9.23;4.70;;;15.10;99.90;;;;;;5074874;28;20215;-72
2021/09/12 06:34:32;;;;;;;9.97;4.90;;;15.20;99.90;;;;;;5074760;28;20210;-72
2021/09/12 06:36:59;;;;;;;8.90;4.33;;;15.10;99.90;;;;;;5074480;28;20202;-72
2021/09/12 06:39:26;;;;;;;10.97;4.67;;;15.20;99.90;;;;;;5074555;28;20291;-73
2021/09/12 06:41:53;;;;;;;10.80;4.37;;;15.10;99.90;;;;;;5074553;28;20231;-73
2021/09/12 06:44:19;;;;;;;10.07;4.10;;;15.10;99.90;;;;;;5074071;28;20791;-72
2021/09/12 06:46:46;;;;;;;5.87;4.00;;;15.20;99.90;;;;;;5074272;28;20649;-72
2021/09/12 06:49:14;;;;;;;11.03;4.50;;;15.20;99.90;;;;;;5074496;28;20207;-72
2021/09/12 06:51:42;;;;;;;6.83;4.13;;;15.40;99.90;;;;;;5073619;28;20199;-73
2021/09/12 06:54:09;;;;;;;5.67;3.77;;;15.50;99.90;;;;;;5073909;28;20298;-72
2021/09/12 06:56:36;;;;;;;12.43;4.00;;;15.50;99.90;;;;;;5074464;28;20227;-73
2021/09/12 06:59:03;;;;;;;10.43;4.60;;;15.40;99.90;;;;;;5074604;28;20291;-72
2021/09/12 07:01:29;;;;;;;9.50;4.03;;;15.40;99.90;;;;;;5073950;28;20287;-72
2021/09/12 07:03:56;;;;;;;12.33;4.90;;;15.50;99.90;;;;;;5074242;28;20211;-73
2021/09/12 07:06:23;;;;;;;11.30;4.97;;;15.60;99.90;;;;;;5074265;28;20362;-72
2021/09/12 07:08:51;;;;;;;12.53;4.47;;;15.70;99.90;;;;;;5074063;28;20662;-73
2021/09/12 07:11:18;;;;;;;12.10;4.67;;;15.80;99.90;;;;;;5073652;28;20660;-73
2021/09/12 07:13:45;;;;;;;9.47;3.83;;;15.80;99.90;;;;;;5073712;28;20278;-73
2021/09/12 07:16:12;;;;;;;8.50;4.07;;;16.00;99.90;;;;;;5074075;28;20306;-73
2021/09/12 07:18:39;;;;;;;10.93;4.13;;;16.10;99.90;;;;;;5073383;28;20652;-73
2021/09/12 07:21:06;;;;;;;9.40;4.07;;;16.10;99.90;;;;;;5073859;28;20213;-73
2021/09/12 07:23:32;;;;;;;10.57;4.00;;;16.10;99.90;;;;;;5074014;28;20199;-73
2021/09/12 07:26:01;;;;;;;9.73;4.10;;;16.20;99.90;;;;;;5073984;28;20222;-73
2021/09/12 07:28:28;;;;;;;8.33;3.73;;;16.40;99.90;;;;;;5073784;28;20202;-73
2021/09/12 07:30:54;;;;;;;13.90;4.70;;;16.50;99.90;;;;;;5073977;28;20223;-73
2021/09/12 07:33:21;;;;;;;10.87;4.43;;;16.50;99.90;;;;;;5072542;28;20204;-73
2021/09/12 07:35:48;;;;;;;10.37;3.63;;;16.60;99.90;;;;;;5073661;28;20231;-73
2021/09/12 07:38:15;;;;;;;15.13;4.53;;;16.70;99.90;;;;;;5073854;28;20630;-73
2021/09/12 07:40:42;;;;;;;10.93;4.30;;;16.90;99.90;;;;;;5073611;28;20196;-73
2021/09/12 07:43:10;;;;;;;8.80;4.73;;;17.10;99.90;;;;;;5073427;28;20663;-73
2021/09/12 07:45:37;;;;;;;10.23;4.10;;;17.30;99.90;;;;;;5073029;28;20747;-73
2021/09/12 07:48:05;;;;;;;14.20;4.33;;;17.50;99.90;;;;;;5073254;28;20203;-72
2021/09/12 07:50:31;;;;;;;11.20;4.03;;;17.80;99.90;;;;;;5073152;28;20291;-73
2021/09/12 07:52:58;;;;;;;11.27;4.13;;;18.00;99.90;;;;;;5073533;28;20290;-73
2021/09/12 07:55:25;;;;;;;11.20;4.03;;;18.20;99.90;;;;;;5073427;28;20229;-73
2021/09/12 07:57:52;;;;;;;10.47;4.13;;;18.20;99.90;;;;;;5073627;28;20616;-73
2021/09/12 08:00:20;;;;;;;9.87;4.20;;;18.50;99.90;;;;;;5073608;28;20210;-73
2021/09/12 08:02:47;;;;;;;11.87;4.30;;;18.60;99.90;;;;;;5073437;28;20235;-73
2021/09/12 08:05:14;;;;;;;10.97;4.33;;;18.80;99.90;;;;;;5073369;28;20287;-73
2021/09/12 08:07:41;;;;;;;10.60;4.27;;;19.00;99.90;;;;;;5073242;28;20652;-73
2021/09/12 08:10:09;;;;;;;12.33;4.90;;;19.10;99.90;;;;;;5068583;28;20238;-73
2021/09/12 08:12:36;;;;;;;10.90;4.90;;;19.30;99.90;;;;;;5072876;28;20234;-73
2021/09/12 08:15:03;;;;;;;10.60;5.10;;;19.70;99.90;;;;;;5072890;28;20291;-73
2021/09/12 08:17:31;;;;;;;12.33;5.40;;;20.00;99.90;;;;;;5072803;28;20286;-73
2021/09/12 08:19:58;;;;;;;10.20;4.90;;;20.30;99.90;;;;;;5068310;28;20756;-73
2021/09/12 08:22:25;;;;;;;10.10;5.60;;;20.30;99.90;;;;;;5073069;28;20298;-73
2021/09/12 08:24:51;;;;;;;11.90;5.77;;;20.40;99.90;;;;;;5073128;28;20196;-73
2021/09/12 08:27:18;;;;;;;12.60;7.40;;;20.50;99.90;;;;;;5072770;28;20192;-74
2021/09/12 08:29:45;;;;;;;18.93;7.70;;;20.40;99.90;;;;;;5072356;28;20203;-73
2021/09/12 08:32:12;;;;;;;20.50;8.77;;;20.50;99.90;;;;;;5072737;28;20664;-73
2021/09/12 08:34:40;;;;;;;18.97;7.30;;;20.60;99.90;;;;;;5073000;28;20282;-74
2021/09/12 08:37:07;;;;;;;14.07;6.70;;;20.50;99.90;;;;;;5072788;28;20376;-73
2021/09/12 08:39:34;;;;;;;15.53;7.33;;;20.40;99.90;;;;;;5072719;28;20223;-73
2021/09/12 08:42:01;;;;;;;13.00;6.53;;;20.40;99.90;;;;;;5085323;28;20214;-73
2021/09/12 08:44:28;;;;;;;12.60;7.30;;;20.30;99.90;;;;;;5072218;28;20283;-73
2021/09/12 08:46:55;;;;;;;12.70;6.80;;;20.30;99.90;;;;;;5076273;28;20191;-73
2021/09/12 08:49:22;;;;;;;14.50;6.97;;;20.40;99.90;;;;;;5076301;28;20559;-73
2021/09/12 08:51:50;;;;;;;13.50;7.17;;;20.50;99.90;;;;;;5076735;28;20625;-73
2021/09/12 08:54:17;;;;;;;11.87;6.87;;;20.80;99.90;;;;;;5076511;28;20286;-73
2021/09/12 08:56:43;;;;;;;19.77;7.10;;;21.40;99.90;;;;;;5076412;28;20222;-73
2021/09/12 08:59:25;;;;;;;13.57;7.27;;;21.80;99.90;;;;;;5076514;28;20205;-73
2021/09/12 09:01:55;;;;;;;11.80;6.93;;;22.10;99.90;;;;;;5076696;28;20195;-73
2021/09/12 09:04:25;;;;;;;12.25;7.18;;;22.30;99.90;;;;;;5076221;28;20207;-73
2021/09/12 09:07:01;;;;;;;14.67;7.70;;;22.50;99.90;;;;;;5076891;28;20188;-73
2021/09/12 09:09:46;;;;;;;17.25;7.32;;;22.50;99.90;;;;;;5076457;28;20196;-73
2021/09/12 09:12:24;;;;;;;15.47;8.23;;;22.50;99.90;;;;;;5076373;28;20204;-73
2021/09/12 09:15:01;;;;;;;17.30;8.68;;;22.30;99.90;;;;;;5075777;28;20286;-73
2021/09/12 09:17:28;;;;;;;15.95;8.18;;;22.80;99.90;;;;;;5076311;28;20309;-73
2021/09/12 09:19:56;;;;;;;14.73;8.05;;;23.40;99.90;;;;;;5075600;28;20202;-73
2021/09/12 09:22:31;;;;;;;15.02;8.48;;;23.40;99.90;;;;;;5075873;28;20579;-73
2021/09/12 09:24:59;;;;;;;13.38;8.30;;;24.30;99.90;;;;;;5075995;28;20293;-73
2021/09/12 09:27:26;;;;;;;16.10;7.57;;;25.10;99.90;;;;;;5075110;28;20195;-73
2021/09/12 09:29:55;;;;;;;11.80;7.35;;;26.40;99.90;;;;;;5073132;28;20208;-73
2021/09/12 09:32:23;;;;;;;14.57;7.75;;;27.50;99.90;;;;;;5074862;28;20196;-73
2021/09/12 09:34:52;;;;;;;16.02;8.50;;;27.10;99.90;;;;;;5058477;28;20200;-73
2021/09/12 09:37:21;;;;;;;14.07;8.10;;;26.00;99.90;;;;;;5073401;28;20229;-73
2021/09/12 09:39:51;;;;;;;15.18;7.88;;;25.10;99.90;;;;;;5072870;28;20203;-73
2021/09/12 09:42:35;;;;;;;14.95;8.68;;;25.50;99.90;;;;;;5074703;28;20206;-73
2021/09/12 09:45:04;;;;;;;12.02;7.65;;;26.80;99.90;;;;;;5075596;28;20199;-73
2021/09/12 09:47:31;;;;;;;17.27;7.60;;;27.50;99.90;;;;;;5075672;28;20263;-73
2021/09/12 09:50:08;;;;;;;15.70;8.35;;;27.70;99.90;;;;;;5075807;28;20203;-73
2021/09/12 09:52:35;;;;;;;16.55;8.25;;;27.40;99.90;;;;;;5071439;28;20567;-73
2021/09/12 09:55:06;;;;;;;12.82;7.10;;;27.40;99.90;;;;;;5074850;28;20668;-73
2021/09/12 09:57:34;;;;;;;13.35;6.63;;;28.40;99.90;;;;;;5071344;28;20231;-73
2021/09/12 10:00:01;;;;;;;12.63;6.45;;;29.60;99.90;;;;;;5074371;28;20687;-73
2021/09/12 10:02:29;;;;;;;11.32;6.93;;;30.40;99.90;;;;;;5065385;28;20603;-73
2021/09/12 10:04:57;;;;;;;9.40;6.50;;;30.00;99.90;;;;;;5066129;28;20302;-73
2021/09/12 10:07:24;;;;;;;12.73;7.40;;;29.20;99.90;;;;;;5073975;28;20678;-73
2021/09/12 10:09:51;;;;;;;13.43;7.57;;;28.30;99.90;;;;;;5072681;28;20223;-73
2021/09/12 10:12:19;;;;;;;13.07;6.97;;;27.80;99.90;;;;;;5070228;28;20552;-73
2021/09/12 10:14:51;;;;;;;13.65;8.27;;;27.90;99.90;;;;;;5053854;28;20208;-73
2021/09/12 10:17:21;;;;;;;14.52;8.23;;;27.40;99.90;;;;;;5073205;28;20710;-73
2021/09/12 10:19:48;;;;;;;13.88;8.13;;;27.70;99.90;;;;;;5069458;28;20199;-73
2021/09/12 10:22:17;;;;;;;12.23;7.38;;;27.20;99.90;;;;;;5074945;28;20656;-73
2021/09/12 10:25:10;;;;;;;17.08;7.97;;;27.20;99.90;;;;;;5071966;28;20202;-74
2021/09/12 10:27:40;;;;;;;15.23;7.88;;;28.20;99.90;;;;;;5056092;28;20216;-75
2021/09/12 10:30:22;;;;;;;13.55;7.68;;;28.80;99.90;;;;;;5074546;28;20202;-74
2021/09/12 10:32:51;;;;;;;16.77;7.60;;;28.40;99.90;;;;;;5074180;28;20207;-74
2021/09/12 10:35:24;;;;;;;14.77;8.50;;;27.90;99.90;;;;;;5074756;28;20214;-75
2021/09/12 10:38:02;;;;;;;13.68;8.38;;;27.70;99.90;;;;;;5074497;28;20280;-75
2021/09/12 10:41:06;;;;;;;13.30;8.88;;;26.80;99.90;;;;;;5076246;28;20269;-75
2021/09/12 10:43:52;;;;;;;13.27;8.50;;;26.90;99.90;;;;;;5075721;28;20233;-73
2021/09/12 10:46:33;;;;;;;15.32;7.97;;;27.40;99.90;;;;;;5069438;28;20207;-75
2021/09/12 10:49:13;;;;;;;11.60;8.18;;;26.90;99.90;;;;;;5074856;28;20196;-74
2021/09/12 10:51:44;;;;;;;14.18;8.50;;;26.40;99.90;;;;;;5074191;28;20279;-75
2021/09/12 10:54:12;;;;;;;16.33;8.90;;;26.20;99.90;;;;;;5075972;28;20260;-75
2021/09/12 10:56:40;;;;;;;14.95;7.78;;;26.10;99.90;;;;;;5074021;28;20783;-75
2021/09/12 10:59:13;;;;;;;12.38;7.50;;;26.00;99.90;;;;;;5074426;28;20215;-75
2021/09/12 11:01:43;;;;;;;13.45;8.45;;;26.10;99.90;;;;;;5074492;28;20209;-75
2021/09/12 11:04:12;;;;;;;14.15;8.02;;;26.30;99.90;;;;;;5054544;28;20572;-75
2021/09/12 11:06:42;;;;;;;14.18;8.13;;;26.40;99.90;;;;;;5053823;28;20665;-75
2021/09/12 11:09:18;;;;;;;15.73;8.90;;;26.40;99.90;;;;;;5053894;28;20192;-75
2021/09/12 11:11:45;;;;;;;20.50;7.97;;;26.70;99.90;;;;;;5072955;28;20195;-75
2021/09/12 11:14:17;;;;;;;11.70;7.95;;;26.90;99.90;;;;;;5074220;28;20711;-75
2021/09/12 11:16:48;;;;;;;13.48;7.45;;;26.70;99.90;;;;;;5073301;28;20212;-74
2021/09/12 11:19:15;;;;;;;14.98;7.97;;;26.50;99.90;;;;;;5074138;28;20257;-74
2021/09/12 11:21:44;;;;;;;12.82;8.13;;;26.60;99.90;;;;;;5073575;28;20223;-74
2021/09/12 11:24:13;;;;;;;10.85;8.10;;;26.00;99.90;;;;;;5073351;28;20290;-75
2021/09/12 11:26:44;;;;;;;12.43;7.43;;;25.60;99.90;;;;;;5065796;28;20191;-74
2021/09/12 11:29:13;;;;;;;13.85;8.05;;;25.80;99.90;;;;;;5073691;28;20222;-75
2021/09/12 11:31:43;;;;;;;11.35;7.28;;;26.00;99.90;;;;;;5073387;28;20206;-74
2021/09/12 11:34:10;;;;;;;12.45;7.47;;;26.40;99.90;;;;;;5073640;28;20275;-75
2021/09/12 11:36:54;;;;;;;14.80;8.25;;;26.40;99.90;;;;;;5073041;28;20626;-74
2021/09/12 11:39:24;;;;;;;10.52;6.82;;;26.40;99.90;;;;;;5053769;28;20291;-74
2021/09/12 11:41:52;;;;;;;13.68;7.45;;;26.70;99.90;;;;;;5075889;28;20195;-74
2021/09/12 11:44:19;;;;;;;9.75;6.47;;;26.20;99.90;;;;;;5082478;28;20204;-74
2021/09/12 11:46:49;;;;;;;11.98;7.07;;;25.60;99.90;;;;;;5072914;28;20191;-74
2021/09/12 11:49:16;;;;;;;13.90;7.30;;;25.60;99.90;;;;;;5073491;28;20278;-74
2021/09/12 11:51:47;;;;;;;12.98;7.78;;;25.80;99.90;;;;;;5073491;28;20206;-74
2021/09/12 11:54:17;;;;;;;10.57;6.93;;;26.20;99.90;;;;;;5073376;28;20196;-75
2021/09/12 11:56:45;;;;;;;8.65;6.53;;;26.50;99.90;;;;;;5072208;28;20203;-75
2021/09/12 11:59:16;;;;;;;9.20;6.55;;;26.20;99.90;;;;;;5072645;28;20199;-75
2021/09/12 12:01:43;;;;;;;7.95;6.00;;;26.30;99.90;;;;;;5065746;28;20689;-74
2021/09/12 12:04:12;;;;;;;12.00;6.25;;;26.60;99.90;;;;;;5073232;28;20295;-74
2021/09/12 12:06:39;;;;;;;9.73;6.20;;;27.00;99.90;;;;;;5072597;28;20191;-75
2021/09/12 12:09:12;;;;;;;13.20;6.88;;;27.50;99.90;;;;;;5072368;28;20286;-75
2021/09/12 12:11:41;;;;;;;8.90;6.47;;;27.80;99.90;;;;;;5071897;28;20203;-75
2021/09/12 12:14:17;;;;;;;9.43;6.80;;;28.10;99.90;;;;;;5071683;28;20192;-74
2021/09/12 12:16:44;;;;;;;8.80;6.05;;;28.00;99.90;;;;;;5072032;28;20219;-75
2021/09/12 12:19:14;;;;;;;8.80;6.40;;;28.20;99.90;;;;;;5071938;28;20668;-75
2021/09/12 12:21:42;;;;;;;7.35;6.43;;;28.20;99.90;;;;;;5071701;28;20739;-75
2021/09/12 12:24:15;;;;;;;10.32;6.30;;;27.70;99.90;;;;;;5071915;28;20199;-75
2021/09/12 12:26:44;;;;;;;8.95;6.30;;;27.30;99.90;;;;;;5072625;28;20223;-74
2021/09/12 12:29:11;;;;;;;9.82;6.25;;;27.10;99.90;;;;;;5072097;28;20234;-75
2021/09/12 12:31:39;;;;;;;7.68;6.00;;;27.20;99.90;;;;;;5072131;28;20202;-75
2021/09/12 12:34:06;;;;;;;8.30;6.55;;;27.60;99.90;;;;;;5072538;28;20279;-75
2021/09/12 12:36:35;;;;;;;8.85;6.10;;;28.50;99.90;;;;;;5071943;28;20672;-75
2021/09/12 12:39:16;;;;;;;8.02;7.22;;;28.80;99.90;;;;;;5073279;28;20200;-75
2021/09/12 12:41:55;;;;;;;14.52;6.80;;;28.10;99.90;;;;;;5072215;28;20195;-74
2021/09/12 12:44:24;;;;;;;12.60;6.45;;;27.30;99.90;;;;;;5073198;28;20227;-75